RYR4982 LGTS-LGSA
Flight info
| Callsign | RYR4982 |
|---|---|
| Flight time | N/A |
| Altitude | 31000 |
| Route | LEKPO UL617 SKP UM749 ATV UP169 MANOK UL612 RUSOS |
| Aircraft | B738/M-SDE3FGILRWY/SB1 |
Departure
| Time | N/A |
|---|---|
| Airport | Thessaloniki Macedonia International Airport (LGTS) |
Arrival
| Time | 2026-05-08 13:39 |
|---|---|
| Airport | Chania International Airport (LGSA) |
| Time | Latitude | Longitude | Altitude | Speed | Heading |
|---|---|---|---|---|---|
| 2026-05-08 13:39 | 35.53079 | 24.15823 | 493 ft | 11 kts | 291° |
| 2026-05-08 13:39 | 35.53111 | 24.15726 | 490 ft | 13 kts | 291° |
| 2026-05-08 13:40 | 35.53147 | 24.15615 | 496 ft | 14 kts | 291° |
| 2026-05-08 13:40 | 35.53183 | 24.15505 | 492 ft | 14 kts | 291° |
| 2026-05-08 13:40 | 35.53217 | 24.15400 | 495 ft | 13 kts | 291° |
| 2026-05-08 13:40 | 35.53250 | 24.15297 | 488 ft | 13 kts | 292° |
| 2026-05-08 13:41 | 35.53290 | 24.15176 | 495 ft | 17 kts | 291° |
| 2026-05-08 13:41 | 35.53335 | 24.15037 | 491 ft | 17 kts | 292° |
| 2026-05-08 13:41 | 35.53379 | 24.14902 | 487 ft | 17 kts | 292° |
| 2026-05-08 13:41 | 35.53421 | 24.14771 | 487 ft | 16 kts | 292° |
| 2026-05-08 13:42 | 35.53462 | 24.14646 | 492 ft | 15 kts | 292° |
| 2026-05-08 13:42 | 35.53501 | 24.14525 | 495 ft | 15 kts | 291° |
| 2026-05-08 13:42 | 35.53538 | 24.14410 | 492 ft | 14 kts | 291° |
| 2026-05-08 13:42 | 35.53575 | 24.14300 | 495 ft | 14 kts | 292° |
| 2026-05-08 13:43 | 35.53609 | 24.14194 | 488 ft | 13 kts | 291° |
| 2026-05-08 13:43 | 35.53647 | 24.14080 | 496 ft | 16 kts | 291° |
| 2026-05-08 13:43 | 35.53693 | 24.13974 | 496 ft | 11 kts | 341° |
| 2026-05-08 13:43 | 35.53773 | 24.14004 | 494 ft | 9 kts | 5° |
| 2026-05-08 13:44 | 35.53814 | 24.13946 | 490 ft | 7 kts | 294° |
| 2026-05-08 13:44 | 35.53829 | 24.13943 | 491 ft | 4 kts | 4° |
| 2026-05-08 13:44 | 35.53875 | 24.13962 | 497 ft | 9 kts | 22° |
| 2026-05-08 13:44 | 35.53902 | 24.13976 | 493 ft | 3 kts | 22° |
| 2026-05-08 13:45 | 35.53906 | 24.13977 | 488 ft | 0 kts | 21° |